sensor_id;sensor_type;location;lat;lon;timestamp;temperature;humidity
27619;DHT22;15039;50.830;4.730;2023-07-20T00:00:04;16.90;99.90
27619;DHT22;15039;50.830;4.730;2023-07-20T00:02:31;17.00;99.90
27619;DHT22;15039;50.830;4.730;2023-07-20T00:04:56;17.00;99.90
27619;DHT22;15039;50.830;4.730;2023-07-20T00:07:22;17.00;99.90
27619;DHT22;15039;50.830;4.730;2023-07-20T00:09:47;17.00;99.90
27619;DHT22;15039;50.830;4.730;2023-07-20T00:12:13;17.10;99.90
27619;DHT22;15039;50.830;4.730;2023-07-20T00:14:38;17.10;99.90
27619;DHT22;15039;50.830;4.730;2023-07-20T00:17:04;17.00;99.90
27619;DHT22;15039;50.830;4.730;2023-07-20T00:19:30;17.10;99.90
27619;DHT22;15039;50.830;4.730;2023-07-20T00:21:57;17.00;99.90
27619;DHT22;15039;50.830;4.730;2023-07-20T00:24:23;17.00;99.90
27619;DHT22;15039;50.830;4.730;2023-07-20T00:26:48;17.00;99.90
27619;DHT22;15039;50.830;4.730;2023-07-20T00:29:14;17.10;99.90
27619;DHT22;15039;50.830;4.730;2023-07-20T00:31:40;17.10;99.90
27619;DHT22;15039;50.830;4.730;2023-07-20T00:34:05;17.10;99.90
27619;DHT22;15039;50.830;4.730;2023-07-20T00:36:31;17.10;99.90
27619;DHT22;15039;50.830;4.730;2023-07-20T00:39:00;17.10;99.90
27619;DHT22;15039;50.830;4.730;2023-07-20T00:41:25;17.00;99.90
27619;DHT22;15039;50.830;4.730;2023-07-20T00:43:54;16.90;99.90
27619;DHT22;15039;50.830;4.730;2023-07-20T00:46:21;16.90;99.90
27619;DHT22;15039;50.830;4.730;2023-07-20T00:48:47;16.80;99.90
27619;DHT22;15039;50.830;4.730;2023-07-20T00:51:13;16.80;99.90
27619;DHT22;15039;50.830;4.730;2023-07-20T00:53:39;16.90;99.90
27619;DHT22;15039;50.830;4.730;2023-07-20T00:56:04;16.70;99.90
27619;DHT22;15039;50.830;4.730;2023-07-20T00:58:30;16.70;99.90
27619;DHT22;15039;50.830;4.730;2023-07-20T01:00:55;16.70;99.90
27619;DHT22;15039;50.830;4.730;2023-07-20T01:03:21;16.70;99.90
27619;DHT22;15039;50.830;4.730;2023-07-20T01:08:27;16.80;99.90
27619;DHT22;15039;50.830;4.730;2023-07-20T01:10:57;16.80;99.90
27619;DHT22;15039;50.830;4.730;2023-07-20T01:13:24;16.70;99.90
27619;DHT22;15039;50.830;4.730;2023-07-20T01:15:56;16.80;99.90
27619;DHT22;15039;50.830;4.730;2023-07-20T01:18:22;16.80;99.90
27619;DHT22;15039;50.830;4.730;2023-07-20T01:20:48;16.90;99.90
27619;DHT22;15039;50.830;4.730;2023-07-20T01:30:55;17.00;99.90
27619;DHT22;15039;50.830;4.730;2023-07-20T01:33:21;16.90;99.90
27619;DHT22;15039;50.830;4.730;2023-07-20T01:35:52;16.80;99.90
27619;DHT22;15039;50.830;4.730;2023-07-20T01:38:18;16.70;99.90
27619;DHT22;15039;50.830;4.730;2023-07-20T01:40:44;16.70;99.90
27619;DHT22;15039;50.830;4.730;2023-07-20T01:43:10;16.70;99.90
27619;DHT22;15039;50.830;4.730;2023-07-20T01:45:36;16.70;99.90
27619;DHT22;15039;50.830;4.730;2023-07-20T01:48:02;16.70;99.90
27619;DHT22;15039;50.830;4.730;2023-07-20T01:50:27;16.80;99.90
27619;DHT22;15039;50.830;4.730;2023-07-20T01:52:53;16.80;99.90
27619;DHT22;15039;50.830;4.730;2023-07-20T01:55:18;16.80;99.90
27619;DHT22;15039;50.830;4.730;2023-07-20T01:57:44;16.80;99.90
27619;DHT22;15039;50.830;4.730;2023-07-20T02:00:10;16.80;99.90
27619;DHT22;15039;50.830;4.730;2023-07-20T02:02:36;16.80;99.90
27619;DHT22;15039;50.830;4.730;2023-07-20T02:05:02;16.80;99.90
27619;DHT22;15039;50.830;4.730;2023-07-20T02:07:27;16.80;99.90
27619;DHT22;15039;50.830;4.730;2023-07-20T02:09:53;16.80;99.90
27619;DHT22;15039;50.830;4.730;2023-07-20T02:12:19;16.70;99.90
27619;DHT22;15039;50.830;4.730;2023-07-20T02:14:44;16.70;99.90
27619;DHT22;15039;50.830;4.730;2023-07-20T02:17:10;16.60;99.90
27619;DHT22;15039;50.830;4.730;2023-07-20T02:19:36;16.50;99.90
27619;DHT22;15039;50.830;4.730;2023-07-20T02:22:02;16.50;99.90
27619;DHT22;15039;50.830;4.730;2023-07-20T02:24:27;16.50;99.90
27619;DHT22;15039;50.830;4.730;2023-07-20T02:26:53;16.50;99.90
27619;DHT22;15039;50.830;4.730;2023-07-20T02:29:18;16.60;99.90
27619;DHT22;15039;50.830;4.730;2023-07-20T02:31:44;16.60;99.90
27619;DHT22;15039;50.830;4.730;2023-07-20T02:34:10;16.50;99.90
27619;DHT22;15039;50.830;4.730;2023-07-20T02:36:35;16.40;99.90
27619;DHT22;15039;50.830;4.730;2023-07-20T02:39:01;16.30;99.90
27619;DHT22;15039;50.830;4.730;2023-07-20T02:41:30;16.30;99.90
27619;DHT22;15039;50.830;4.730;2023-07-20T02:43:55;16.40;99.90
27619;DHT22;15039;50.830;4.730;2023-07-20T02:46:22;16.30;99.90
27619;DHT22;15039;50.830;4.730;2023-07-20T02:48:47;16.40;99.90
27619;DHT22;15039;50.830;4.730;2023-07-20T02:51:13;16.50;99.90
27619;DHT22;15039;50.830;4.730;2023-07-20T02:53:38;16.50;99.90
27619;DHT22;15039;50.830;4.730;2023-07-20T02:56:04;16.50;99.90
27619;DHT22;15039;50.830;4.730;2023-07-20T02:58:29;16.50;99.90
27619;DHT22;15039;50.830;4.730;2023-07-20T03:00:54;16.60;99.90
27619;DHT22;15039;50.830;4.730;2023-07-20T03:03:20;16.50;99.90
27619;DHT22;15039;50.830;4.730;2023-07-20T03:05:47;16.40;99.90
27619;DHT22;15039;50.830;4.730;2023-07-20T03:08:19;16.30;99.90
27619;DHT22;15039;50.830;4.730;2023-07-20T03:10:45;16.20;99.90
27619;DHT22;15039;50.830;4.730;2023-07-20T03:13:10;16.10;99.90
27619;DHT22;15039;50.830;4.730;2023-07-20T03:15:36;16.00;99.90
27619;DHT22;15039;50.830;4.730;2023-07-20T03:18:01;16.00;99.90
27619;DHT22;15039;50.830;4.730;2023-07-20T03:20:28;16.10;99.90
27619;DHT22;15039;50.830;4.730;2023-07-20T03:22:53;16.10;99.90
27619;DHT22;15039;50.830;4.730;2023-07-20T03:25:19;16.10;99.90
27619;DHT22;15039;50.830;4.730;2023-07-20T03:27:44;16.20;99.90
27619;DHT22;15039;50.830;4.730;2023-07-20T03:30:10;16.10;99.90
27619;DHT22;15039;50.830;4.730;2023-07-20T03:32:36;16.10;99.90
27619;DHT22;15039;50.830;4.730;2023-07-20T03:35:02;16.10;99.90
27619;DHT22;15039;50.830;4.730;2023-07-20T03:37:27;16.00;99.90
27619;DHT22;15039;50.830;4.730;2023-07-20T03:39:53;16.10;99.90
27619;DHT22;15039;50.830;4.730;2023-07-20T03:42:19;16.20;99.90
27619;DHT22;15039;50.830;4.730;2023-07-20T03:44:45;16.30;99.90
27619;DHT22;15039;50.830;4.730;2023-07-20T03:47:10;16.50;99.90
27619;DHT22;15039;50.830;4.730;2023-07-20T03:49:36;16.50;99.90
27619;DHT22;15039;50.830;4.730;2023-07-20T03:52:01;16.40;99.90
27619;DHT22;15039;50.830;4.730;2023-07-20T03:54:30;16.30;99.90
27619;DHT22;15039;50.830;4.730;2023-07-20T03:56:55;16.30;99.90
27619;DHT22;15039;50.830;4.730;2023-07-20T03:59:21;16.30;99.90
27619;DHT22;15039;50.830;4.730;2023-07-20T04:01:46;16.30;99.90
27619;DHT22;15039;50.830;4.730;2023-07-20T04:04:13;16.40;99.90
27619;DHT22;15039;50.830;4.730;2023-07-20T04:06:38;16.20;99.90
27619;DHT22;15039;50.830;4.730;2023-07-20T04:09:04;16.30;99.90
27619;DHT22;15039;50.830;4.730;2023-07-20T04:11:30;16.20;99.90
27619;DHT22;15039;50.830;4.730;2023-07-20T04:13:56;16.30;99.90
27619;DHT22;15039;50.830;4.730;2023-07-20T04:16:21;16.40;99.90
27619;DHT22;15039;50.830;4.730;2023-07-20T04:18:47;16.50;99.90
27619;DHT22;15039;50.830;4.730;2023-07-20T04:21:13;16.60;99.90
27619;DHT22;15039;50.830;4.730;2023-07-20T04:23:38;16.60;99.90
27619;DHT22;15039;50.830;4.730;2023-07-20T04:26:03;16.60;99.90
27619;DHT22;15039;50.830;4.730;2023-07-20T04:28:29;16.60;99.90
27619;DHT22;15039;50.830;4.730;2023-07-20T04:30:58;16.60;99.90
27619;DHT22;15039;50.830;4.730;2023-07-20T04:33:34;16.70;99.90
27619;DHT22;15039;50.830;4.730;2023-07-20T04:35:59;16.70;99.90
27619;DHT22;15039;50.830;4.730;2023-07-20T04:38:25;16.70;99.90
27619;DHT22;15039;50.830;4.730;2023-07-20T04:40:51;16.80;99.90
27619;DHT22;15039;50.830;4.730;2023-07-20T04:43:17;16.80;99.90
27619;DHT22;15039;50.830;4.730;2023-07-20T04:45:42;16.80;99.90
27619;DHT22;15039;50.830;4.730;2023-07-20T04:48:09;16.90;99.90
27619;DHT22;15039;50.830;4.730;2023-07-20T04:50:35;16.90;99.90
27619;DHT22;15039;50.830;4.730;2023-07-20T04:53:01;17.00;99.90
27619;DHT22;15039;50.830;4.730;2023-07-20T04:55:27;17.10;99.90
27619;DHT22;15039;50.830;4.730;2023-07-20T04:57:53;17.10;99.90
27619;DHT22;15039;50.830;4.730;2023-07-20T05:00:18;17.20;99.90
27619;DHT22;15039;50.830;4.730;2023-07-20T05:02:45;17.30;99.90
27619;DHT22;15039;50.830;4.730;2023-07-20T05:05:10;17.30;99.90
27619;DHT22;15039;50.830;4.730;2023-07-20T05:07:36;17.30;99.90
27619;DHT22;15039;50.830;4.730;2023-07-20T05:10:01;17.30;99.90
27619;DHT22;15039;50.830;4.730;2023-07-20T05:12:27;17.30;99.90
27619;DHT22;15039;50.830;4.730;2023-07-20T05:14:52;17.40;99.90
27619;DHT22;15039;50.830;4.730;2023-07-20T05:17:18;17.50;99.90
27619;DHT22;15039;50.830;4.730;2023-07-20T05:19:43;17.60;99.90
27619;DHT22;15039;50.830;4.730;2023-07-20T05:22:09;17.70;99.90
27619;DHT22;15039;50.830;4.730;2023-07-20T05:24:36;17.70;99.90
27619;DHT22;15039;50.830;4.730;2023-07-20T05:27:01;17.70;99.90
27619;DHT22;15039;50.830;4.730;2023-07-20T05:29:27;17.70;99.90
27619;DHT22;15039;50.830;4.730;2023-07-20T05:31:52;17.70;99.90
27619;DHT22;15039;50.830;4.730;2023-07-20T05:34:18;17.90;99.90
27619;DHT22;15039;50.830;4.730;2023-07-20T05:36:43;17.90;99.90
27619;DHT22;15039;50.830;4.730;2023-07-20T05:39:09;18.00;99.90
27619;DHT22;15039;50.830;4.730;2023-07-20T05:41:34;18.00;99.90
27619;DHT22;15039;50.830;4.730;2023-07-20T05:44:00;18.10;99.90
27619;DHT22;15039;50.830;4.730;2023-07-20T05:46:25;18.10;99.90
27619;DHT22;15039;50.830;4.730;2023-07-20T05:48:51;18.00;99.90
27619;DHT22;15039;50.830;4.730;2023-07-20T05:51:16;18.00;99.90
27619;DHT22;15039;50.830;4.730;2023-07-20T05:53:42;18.00;99.90
27619;DHT22;15039;50.830;4.730;2023-07-20T05:56:07;18.20;99.90
27619;DHT22;15039;50.830;4.730;2023-07-20T05:58:35;18.20;99.90
27619;DHT22;15039;50.830;4.730;2023-07-20T06:01:01;18.20;99.90
27619;DHT22;15039;50.830;4.730;2023-07-20T06:03:27;18.30;99.90
27619;DHT22;15039;50.830;4.730;2023-07-20T06:05:57;18.40;99.90
27619;DHT22;15039;50.830;4.730;2023-07-20T06:08:23;18.50;99.90
27619;DHT22;15039;50.830;4.730;2023-07-20T06:10:49;18.40;99.90
27619;DHT22;15039;50.830;4.730;2023-07-20T06:13:16;18.40;99.90
27619;DHT22;15039;50.830;4.730;2023-07-20T06:15:45;18.50;99.90
27619;DHT22;15039;50.830;4.730;2023-07-20T06:18:10;18.50;99.90
27619;DHT22;15039;50.830;4.730;2023-07-20T06:20:36;18.60;99.90
27619;DHT22;15039;50.830;4.730;2023-07-20T06:23:01;18.70;99.90
27619;DHT22;15039;50.830;4.730;2023-07-20T06:25:27;18.70;99.90
27619;DHT22;15039;50.830;4.730;2023-07-20T06:27:54;18.70;99.90
27619;DHT22;15039;50.830;4.730;2023-07-20T06:30:20;18.80;99.90
27619;DHT22;15039;50.830;4.730;2023-07-20T06:32:45;18.80;99.90
27619;DHT22;15039;50.830;4.730;2023-07-20T06:35:11;18.80;99.90
27619;DHT22;15039;50.830;4.730;2023-07-20T06:37:36;18.80;99.90
27619;DHT22;15039;50.830;4.730;2023-07-20T06:40:02;18.90;99.90
27619;DHT22;15039;50.830;4.730;2023-07-20T06:42:29;18.90;99.90
27619;DHT22;15039;50.830;4.730;2023-07-20T06:44:56;19.10;99.90
27619;DHT22;15039;50.830;4.730;2023-07-20T06:47:21;19.10;99.90
27619;DHT22;15039;50.830;4.730;2023-07-20T06:49:47;19.10;99.90
27619;DHT22;15039;50.830;4.730;2023-07-20T06:52:12;19.30;99.90
27619;DHT22;15039;50.830;4.730;2023-07-20T06:54:38;19.40;99.90
27619;DHT22;15039;50.830;4.730;2023-07-20T06:57:04;19.50;99.90
27619;DHT22;15039;50.830;4.730;2023-07-20T06:59:30;19.40;99.90
27619;DHT22;15039;50.830;4.730;2023-07-20T07:01:55;19.50;99.90
27619;DHT22;15039;50.830;4.730;2023-07-20T07:04:21;19.50;99.90
27619;DHT22;15039;50.830;4.730;2023-07-20T07:06:46;19.50;99.90
27619;DHT22;15039;50.830;4.730;2023-07-20T07:09:13;19.50;99.90
27619;DHT22;15039;50.830;4.730;2023-07-20T07:11:39;19.70;99.90
27619;DHT22;15039;50.830;4.730;2023-07-20T07:14:04;19.60;99.90
27619;DHT22;15039;50.830;4.730;2023-07-20T07:16:30;19.70;99.90
27619;DHT22;15039;50.830;4.730;2023-07-20T07:18:55;19.80;99.90
27619;DHT22;15039;50.830;4.730;2023-07-20T07:21:21;20.00;99.90
27619;DHT22;15039;50.830;4.730;2023-07-20T07:23:46;20.00;99.90
27619;DHT22;15039;50.830;4.730;2023-07-20T07:26:12;20.10;99.90
27619;DHT22;15039;50.830;4.730;2023-07-20T07:28:38;20.20;99.90
27619;DHT22;15039;50.830;4.730;2023-07-20T07:31:07;20.10;99.90
27619;DHT22;15039;50.830;4.730;2023-07-20T07:33:32;20.30;99.90
27619;DHT22;15039;50.830;4.730;2023-07-20T07:35:58;20.30;99.90
27619;DHT22;15039;50.830;4.730;2023-07-20T07:38:23;20.40;99.90
27619;DHT22;15039;50.830;4.730;2023-07-20T07:40:49;20.50;99.90
27619;DHT22;15039;50.830;4.730;2023-07-20T07:43:14;20.50;99.90
27619;DHT22;15039;50.830;4.730;2023-07-20T07:45:40;20.60;99.90
27619;DHT22;15039;50.830;4.730;2023-07-20T07:48:06;20.60;99.90
27619;DHT22;15039;50.830;4.730;2023-07-20T07:50:32;20.60;99.90
27619;DHT22;15039;50.830;4.730;2023-07-20T07:52:58;20.70;99.90
27619;DHT22;15039;50.830;4.730;2023-07-20T07:55:24;20.70;99.90
27619;DHT22;15039;50.830;4.730;2023-07-20T07:57:49;20.70;99.90
27619;DHT22;15039;50.830;4.730;2023-07-20T08:00:15;20.70;99.90
27619;DHT22;15039;50.830;4.730;2023-07-20T08:02:44;20.70;99.90
27619;DHT22;15039;50.830;4.730;2023-07-20T08:05:10;20.80;99.90
27619;DHT22;15039;50.830;4.730;2023-07-20T08:07:36;21.00;99.90
27619;DHT22;15039;50.830;4.730;2023-07-20T08:10:02;21.20;99.90
27619;DHT22;15039;50.830;4.730;2023-07-20T08:12:27;21.50;99.90
27619;DHT22;15039;50.830;4.730;2023-07-20T08:14:53;21.70;99.90
27619;DHT22;15039;50.830;4.730;2023-07-20T08:17:18;21.70;99.90
27619;DHT22;15039;50.830;4.730;2023-07-20T08:19:46;21.90;99.90
27619;DHT22;15039;50.830;4.730;2023-07-20T08:22:11;22.00;99.90
27619;DHT22;15039;50.830;4.730;2023-07-20T08:24:41;22.20;99.90
27619;DHT22;15039;50.830;4.730;2023-07-20T08:27:07;22.30;99.90
27619;DHT22;15039;50.830;4.730;2023-07-20T08:29:33;22.40;99.90
27619;DHT22;15039;50.830;4.730;2023-07-20T08:31:59;22.30;99.90
27619;DHT22;15039;50.830;4.730;2023-07-20T08:34:24;22.60;99.90
27619;DHT22;15039;50.830;4.730;2023-07-20T08:36:50;22.80;99.90
27619;DHT22;15039;50.830;4.730;2023-07-20T08:39:16;23.00;99.90
27619;DHT22;15039;50.830;4.730;2023-07-20T08:41:42;23.10;99.90
27619;DHT22;15039;50.830;4.730;2023-07-20T08:44:08;23.20;99.90
27619;DHT22;15039;50.830;4.730;2023-07-20T08:46:34;23.30;99.90
27619;DHT22;15039;50.830;4.730;2023-07-20T08:49:00;23.30;99.90
27619;DHT22;15039;50.830;4.730;2023-07-20T08:51:28;23.10;99.90
27619;DHT22;15039;50.830;4.730;2023-07-20T08:53:54;22.90;99.90
27619;DHT22;15039;50.830;4.730;2023-07-20T08:56:19;22.80;99.90
27619;DHT22;15039;50.830;4.730;2023-07-20T08:58:46;22.80;99.90
27619;DHT22;15039;50.830;4.730;2023-07-20T09:01:12;22.70;99.90
27619;DHT22;15039;50.830;4.730;2023-07-20T09:03:38;22.50;99.90
27619;DHT22;15039;50.830;4.730;2023-07-20T09:06:05;22.30;99.90
27619;DHT22;15039;50.830;4.730;2023-07-20T09:08:30;22.20;99.90
27619;DHT22;15039;50.830;4.730;2023-07-20T09:10:56;22.30;99.90
27619;DHT22;15039;50.830;4.730;2023-07-20T09:13:21;22.50;99.90
27619;DHT22;15039;50.830;4.730;2023-07-20T09:15:48;22.80;99.90
27619;DHT22;15039;50.830;4.730;2023-07-20T09:18:27;23.20;99.90
27619;DHT22;15039;50.830;4.730;2023-07-20T09:20:57;23.10;99.90
27619;DHT22;15039;50.830;4.730;2023-07-20T09:23:29;23.10;99.90
27619;DHT22;15039;50.830;4.730;2023-07-20T09:25:57;23.20;99.90
27619;DHT22;15039;50.830;4.730;2023-07-20T09:28:22;23.30;99.90
27619;DHT22;15039;50.830;4.730;2023-07-20T09:30:48;23.10;99.90
27619;DHT22;15039;50.830;4.730;2023-07-20T09:33:23;23.10;99.90
27619;DHT22;15039;50.830;4.730;2023-07-20T09:35:48;22.90;99.90
27619;DHT22;15039;50.830;4.730;2023-07-20T09:38:14;22.80;99.90
27619;DHT22;15039;50.830;4.730;2023-07-20T09:40:40;23.10;99.90
27619;DHT22;15039;50.830;4.730;2023-07-20T09:43:09;23.30;99.90
27619;DHT22;15039;50.830;4.730;2023-07-20T09:45:35;23.40;99.90
27619;DHT22;15039;50.830;4.730;2023-07-20T09:48:04;23.40;99.90
27619;DHT22;15039;50.830;4.730;2023-07-20T09:50:32;23.40;99.90
27619;DHT22;15039;50.830;4.730;2023-07-20T09:52:57;23.50;99.90
27619;DHT22;15039;50.830;4.730;2023-07-20T09:55:25;23.60;99.90
27619;DHT22;15039;50.830;4.730;2023-07-20T09:57:51;23.70;99.90
27619;DHT22;15039;50.830;4.730;2023-07-20T10:00:21;23.80;99.90
27619;DHT22;15039;50.830;4.730;2023-07-20T10:02:46;23.90;99.90
27619;DHT22;15039;50.830;4.730;2023-07-20T10:05:12;24.00;99.90
27619;DHT22;15039;50.830;4.730;2023-07-20T10:07:43;24.00;99.90
27619;DHT22;15039;50.830;4.730;2023-07-20T10:10:10;23.80;99.90
27619;DHT22;15039;50.830;4.730;2023-07-20T10:12:37;23.80;99.90
27619;DHT22;15039;50.830;4.730;2023-07-20T10:15:11;23.70;99.90
27619;DHT22;15039;50.830;4.730;2023-07-20T10:17:38;23.90;99.90
27619;DHT22;15039;50.830;4.730;2023-07-20T10:20:05;24.20;99.90
27619;DHT22;15039;50.830;4.730;2023-07-20T10:22:35;24.50;99.90
27619;DHT22;15039;50.830;4.730;2023-07-20T10:25:01;24.60;99.90
27619;DHT22;15039;50.830;4.730;2023-07-20T10:27:26;24.80;99.90
27619;DHT22;15039;50.830;4.730;2023-07-20T10:29:52;24.90;99.90
27619;DHT22;15039;50.830;4.730;2023-07-20T10:32:20;24.90;99.90
27619;DHT22;15039;50.830;4.730;2023-07-20T10:34:52;25.00;99.90
27619;DHT22;15039;50.830;4.730;2023-07-20T10:43:09;25.00;99.90
27619;DHT22;15039;50.830;4.730;2023-07-20T10:48:22;25.10;99.90
27619;DHT22;15039;50.830;4.730;2023-07-20T10:53:33;25.30;99.90
27619;DHT22;15039;50.830;4.730;2023-07-20T10:56:40;25.70;99.90
27619;DHT22;15039;50.830;4.730;2023-07-20T10:58:47;25.70;99.90
27619;DHT22;15039;50.830;4.730;2023-07-20T11:01:13;25.90;99.90
27619;DHT22;15039;50.830;4.730;2023-07-20T11:03:39;25.90;99.90
27619;DHT22;15039;50.830;4.730;2023-07-20T11:09:09;25.90;99.90
27619;DHT22;15039;50.830;4.730;2023-07-20T11:11:39;25.80;99.90
27619;DHT22;15039;50.830;4.730;2023-07-20T11:14:06;25.70;99.90
27619;DHT22;15039;50.830;4.730;2023-07-20T11:18:58;25.80;99.90
27619;DHT22;15039;50.830;4.730;2023-07-20T11:21:24;25.80;99.90
27619;DHT22;15039;50.830;4.730;2023-07-20T11:23:50;25.90;99.90
27619;DHT22;15039;50.830;4.730;2023-07-20T11:26:17;25.80;99.90
27619;DHT22;15039;50.830;4.730;2023-07-20T11:28:48;25.70;99.90
27619;DHT22;15039;50.830;4.730;2023-07-20T11:31:14;25.50;99.90
27619;DHT22;15039;50.830;4.730;2023-07-20T11:33:41;25.10;99.90
27619;DHT22;15039;50.830;4.730;2023-07-20T11:36:08;24.40;99.90
27619;DHT22;15039;50.830;4.730;2023-07-20T11:38:33;24.40;99.90
27619;DHT22;15039;50.830;4.730;2023-07-20T11:40:59;24.40;99.90
27619;DHT22;15039;50.830;4.730;2023-07-20T11:43:24;24.30;99.90
27619;DHT22;15039;50.830;4.730;2023-07-20T11:45:51;24.00;99.90
27619;DHT22;15039;50.830;4.730;2023-07-20T11:48:17;23.90;99.90
27619;DHT22;15039;50.830;4.730;2023-07-20T11:50:42;23.70;99.90
27619;DHT22;15039;50.830;4.730;2023-07-20T11:53:08;23.60;99.90
27619;DHT22;15039;50.830;4.730;2023-07-20T11:55:34;23.60;99.90
27619;DHT22;15039;50.830;4.730;2023-07-20T12:00:28;23.80;99.90
27619;DHT22;15039;50.830;4.730;2023-07-20T12:02:54;23.80;99.90
27619;DHT22;15039;50.830;4.730;2023-07-20T12:05:19;23.90;99.90
27619;DHT22;15039;50.830;4.730;2023-07-20T12:07:47;23.90;99.90
27619;DHT22;15039;50.830;4.730;2023-07-20T12:10:15;24.20;99.90
27619;DHT22;15039;50.830;4.730;2023-07-20T12:12:41;24.40;99.90
27619;DHT22;15039;50.830;4.730;2023-07-20T12:15:16;24.50;99.90
27619;DHT22;15039;50.830;4.730;2023-07-20T12:17:46;24.60;99.90
27619;DHT22;15039;50.830;4.730;2023-07-20T12:20:12;24.50;99.90
27619;DHT22;15039;50.830;4.730;2023-07-20T12:22:38;24.60;99.90
27619;DHT22;15039;50.830;4.730;2023-07-20T12:25:07;24.70;99.90
27619;DHT22;15039;50.830;4.730;2023-07-20T12:27:35;24.90;99.90
27619;DHT22;15039;50.830;4.730;2023-07-20T12:30:01;25.10;99.90
27619;DHT22;15039;50.830;4.730;2023-07-20T12:32:29;25.30;99.90
27619;DHT22;15039;50.830;4.730;2023-07-20T12:34:55;25.40;99.90
27619;DHT22;15039;50.830;4.730;2023-07-20T12:37:20;25.50;99.90
27619;DHT22;15039;50.830;4.730;2023-07-20T12:39:46;25.60;99.90
27619;DHT22;15039;50.830;4.730;2023-07-20T12:42:12;25.60;99.90
27619;DHT22;15039;50.830;4.730;2023-07-20T12:44:40;25.80;99.90
27619;DHT22;15039;50.830;4.730;2023-07-20T12:47:05;26.00;99.90
27619;DHT22;15039;50.830;4.730;2023-07-20T12:49:31;26.30;99.90
27619;DHT22;15039;50.830;4.730;2023-07-20T12:51:56;26.50;99.90
27619;DHT22;15039;50.830;4.730;2023-07-20T12:54:22;26.50;99.90
27619;DHT22;15039;50.830;4.730;2023-07-20T12:56:47;26.60;99.90
27619;DHT22;15039;50.830;4.730;2023-07-20T12:59:13;26.70;99.90
27619;DHT22;15039;50.830;4.730;2023-07-20T13:01:38;26.70;98.90
27619;DHT22;15039;50.830;4.730;2023-07-20T13:04:06;26.80;99.60
27619;DHT22;15039;50.830;4.730;2023-07-20T13:06:34;26.90;99.30
27619;DHT22;15039;50.830;4.730;2023-07-20T13:09:00;26.90;98.20
27619;DHT22;15039;50.830;4.730;2023-07-20T13:11:25;26.60;99.10
27619;DHT22;15039;50.830;4.730;2023-07-20T13:13:51;26.40;99.10
27619;DHT22;15039;50.830;4.730;2023-07-20T13:16:17;26.20;99.00
27619;DHT22;15039;50.830;4.730;2023-07-20T13:18:42;26.20;98.90
27619;DHT22;15039;50.830;4.730;2023-07-20T13:21:08;26.20;99.10
27619;DHT22;15039;50.830;4.730;2023-07-20T13:23:36;26.10;98.80
27619;DHT22;15039;50.830;4.730;2023-07-20T13:26:02;26.20;98.60
27619;DHT22;15039;50.830;4.730;2023-07-20T13:28:28;26.20;98.60
27619;DHT22;15039;50.830;4.730;2023-07-20T13:30:54;26.30;99.90
27619;DHT22;15039;50.830;4.730;2023-07-20T13:33:21;26.50;99.10
27619;DHT22;15039;50.830;4.730;2023-07-20T13:35:48;26.40;99.30
27619;DHT22;15039;50.830;4.730;2023-07-20T13:38:15;26.20;99.30
27619;DHT22;15039;50.830;4.730;2023-07-20T13:40:41;25.90;99.90
27619;DHT22;15039;50.830;4.730;2023-07-20T13:43:07;25.80;99.90
27619;DHT22;15039;50.830;4.730;2023-07-20T13:45:34;25.70;99.90
27619;DHT22;15039;50.830;4.730;2023-07-20T13:48:00;25.60;99.90
27619;DHT22;15039;50.830;4.730;2023-07-20T13:50:28;25.50;99.90
27619;DHT22;15039;50.830;4.730;2023-07-20T13:52:57;25.30;99.90
27619;DHT22;15039;50.830;4.730;2023-07-20T13:55:47;25.10;99.90
27619;DHT22;15039;50.830;4.730;2023-07-20T13:58:36;25.30;99.90
27619;DHT22;15039;50.830;4.730;2023-07-20T14:01:02;25.20;99.90
27619;DHT22;15039;50.830;4.730;2023-07-20T14:03:51;24.90;99.90
27619;DHT22;15039;50.830;4.730;2023-07-20T14:06:18;24.90;99.90
27619;DHT22;15039;50.830;4.730;2023-07-20T14:08:59;25.00;99.90
27619;DHT22;15039;50.830;4.730;2023-07-20T14:11:25;25.10;99.90
27619;DHT22;15039;50.830;4.730;2023-07-20T14:13:51;25.20;99.90
27619;DHT22;15039;50.830;4.730;2023-07-20T14:16:24;25.20;99.90
27619;DHT22;15039;50.830;4.730;2023-07-20T14:18:54;24.90;99.90
27619;DHT22;15039;50.830;4.730;2023-07-20T14:21:20;24.70;99.90
27619;DHT22;15039;50.830;4.730;2023-07-20T14:23:52;24.50;99.90
27619;DHT22;15039;50.830;4.730;2023-07-20T14:26:41;24.40;99.90
27619;DHT22;15039;50.830;4.730;2023-07-20T14:29:15;24.40;99.90
27619;DHT22;15039;50.830;4.730;2023-07-20T14:31:49;24.20;99.90
27619;DHT22;15039;50.830;4.730;2023-07-20T14:34:21;24.40;99.90
27619;DHT22;15039;50.830;4.730;2023-07-20T14:37:11;24.60;99.90
27619;DHT22;15039;50.830;4.730;2023-07-20T14:39:39;24.50;99.90
27619;DHT22;15039;50.830;4.730;2023-07-20T14:42:08;24.30;99.90
27619;DHT22;15039;50.830;4.730;2023-07-20T14:44:58;24.40;99.90
27619;DHT22;15039;50.830;4.730;2023-07-20T14:47:34;24.30;99.90
27619;DHT22;15039;50.830;4.730;2023-07-20T14:50:22;24.30;99.90
27619;DHT22;15039;50.830;4.730;2023-07-20T14:52:49;24.10;99.90
27619;DHT22;15039;50.830;4.730;2023-07-20T14:55:15;23.50;99.90
27619;DHT22;15039;50.830;4.730;2023-07-20T14:57:40;23.30;99.90
27619;DHT22;15039;50.830;4.730;2023-07-20T15:00:06;23.00;99.90
27619;DHT22;15039;50.830;4.730;2023-07-20T15:02:36;23.10;99.90
27619;DHT22;15039;50.830;4.730;2023-07-20T15:05:02;23.20;99.90
27619;DHT22;15039;50.830;4.730;2023-07-20T15:07:31;23.40;99.90
27619;DHT22;15039;50.830;4.730;2023-07-20T15:10:05;23.80;99.90
27619;DHT22;15039;50.830;4.730;2023-07-20T15:12:53;24.20;99.90
27619;DHT22;15039;50.830;4.730;2023-07-20T15:15:22;24.60;99.90
27619;DHT22;15039;50.830;4.730;2023-07-20T15:17:49;24.90;99.90
27619;DHT22;15039;50.830;4.730;2023-07-20T15:20:25;25.10;99.90
27619;DHT22;15039;50.830;4.730;2023-07-20T15:23:12;25.10;99.90
27619;DHT22;15039;50.830;4.730;2023-07-20T15:25:46;25.30;99.90
27619;DHT22;15039;50.830;4.730;2023-07-20T15:28:13;25.20;99.90
27619;DHT22;15039;50.830;4.730;2023-07-20T15:30:40;25.30;99.90
27619;DHT22;15039;50.830;4.730;2023-07-20T15:33:13;25.20;99.90
27619;DHT22;15039;50.830;4.730;2023-07-20T15:35:58;25.20;99.90
27619;DHT22;15039;50.830;4.730;2023-07-20T15:38:26;25.20;99.90
27619;DHT22;15039;50.830;4.730;2023-07-20T15:41:06;25.10;99.90
27619;DHT22;15039;50.830;4.730;2023-07-20T15:43:36;25.00;99.90
27619;DHT22;15039;50.830;4.730;2023-07-20T15:46:12;24.90;99.90
27619;DHT22;15039;50.830;4.730;2023-07-20T15:48:52;24.90;99.90
27619;DHT22;15039;50.830;4.730;2023-07-20T15:51:19;24.70;99.90
27619;DHT22;15039;50.830;4.730;2023-07-20T15:53:49;24.50;99.90
27619;DHT22;15039;50.830;4.730;2023-07-20T15:56:18;24.70;99.90
27619;DHT22;15039;50.830;4.730;2023-07-20T15:58:59;24.70;99.90